createdAt,value
2024-04-22T00:00:30.224Z,780.24
2024-04-22T00:01:30.267Z,786.68
2024-04-22T00:02:30.233Z,785.76
2024-04-22T00:03:30.251Z,784.37
2024-04-22T00:04:30.182Z,782.07
2024-04-22T00:05:30.166Z,782.07
2024-04-22T00:06:30.140Z,782.07
2024-04-22T00:07:30.170Z,776.61
2024-04-22T00:08:30.163Z,780.24
2024-04-22T00:09:30.131Z,781.61
2024-04-22T00:10:30.131Z,777.97
2024-04-22T00:11:30.168Z,775.71
2024-04-22T00:12:30.075Z,778.42
2024-04-22T00:13:30.121Z,781.16
2024-04-22T00:14:30.165Z,775.26
2024-04-22T00:15:30.154Z,775.71
2024-04-22T00:16:30.079Z,776.16
2024-04-22T00:17:30.294Z,778.42
2024-04-22T00:18:30.025Z,773.91
2024-04-22T00:19:30.066Z,776.61
2024-04-22T00:20:29.998Z,773.91
2024-04-22T00:21:29.984Z,775.26
2024-04-22T00:22:30.043Z,776.16
2024-04-22T00:23:30.010Z,777.52
2024-04-22T00:24:29.987Z,774.81
2024-04-22T00:25:29.982Z,773.91
2024-04-22T00:26:29.975Z,773.02
2024-04-22T00:27:29.934Z,774.36
2024-04-22T00:28:29.982Z,772.57
2024-04-22T00:29:29.904Z,777.97
2024-04-22T00:30:29.937Z,774.81
2024-04-22T00:31:29.967Z,775.26
2024-04-22T00:32:29.915Z,773.91
2024-04-22T00:33:29.910Z,773.91
2024-04-22T00:34:29.946Z,773.02
2024-04-22T00:35:29.858Z,771.68
2024-04-22T00:36:29.824Z,766.36
2024-04-22T00:37:29.872Z,772.12
2024-04-22T00:38:29.831Z,766.80
2024-04-22T00:39:29.794Z,769.90
2024-04-22T00:40:29.816Z,764.60
2024-04-22T00:41:29.764Z,769.01
2024-04-22T00:42:29.773Z,767.24
2024-04-22T00:43:29.769Z,769.01
2024-04-22T00:44:29.749Z,765.48
2024-04-22T00:45:29.760Z,769.45
2024-04-22T00:46:40.120Z,765.04
2024-04-22T00:47:29.829Z,766.80
2024-04-22T00:48:29.691Z,763.73
2024-04-22T00:49:29.756Z,765.48
2024-04-22T00:50:29.716Z,762.86
2024-04-22T00:51:29.685Z,764.60
2024-04-22T00:52:29.671Z,763.29
2024-04-22T00:53:29.629Z,768.57
2024-04-22T00:54:29.620Z,758.95
2024-04-22T00:55:29.671Z,760.68
2024-04-22T00:56:29.599Z,764.17
2024-04-22T00:57:29.609Z,759.82
2024-04-22T00:58:29.644Z,755.09
2024-04-22T00:59:29.599Z,758.95
2024-04-22T01:00:29.582Z,758.52
2024-04-22T01:01:29.624Z,756.80
2024-04-22T01:02:29.545Z,756.37
2024-04-22T01:03:29.524Z,756.80
2024-04-22T01:04:29.602Z,755.52
2024-04-22T01:05:29.508Z,752.54
2024-04-22T01:06:29.502Z,752.11
2024-04-22T01:07:29.532Z,748.32
2024-04-22T01:08:29.487Z,751.69
2024-04-22T01:09:29.488Z,746.64
2024-04-22T01:10:29.518Z,748.32
2024-04-22T01:11:29.524Z,748.41
2024-04-22T01:12:29.468Z,746.64
2024-04-22T01:13:29.484Z,747.57
2024-04-22T01:14:29.410Z,743.40
2024-04-22T01:15:29.388Z,747.90
2024-04-22T01:16:29.446Z,745.90
2024-04-22T01:17:29.516Z,741.75
2024-04-22T01:18:29.373Z,741.75
2024-04-22T01:19:29.561Z,738.46
2024-04-22T01:20:29.363Z,740.92
2024-04-22T01:21:29.349Z,740.92
2024-04-22T01:22:29.430Z,735.21
2024-04-22T01:23:29.402Z,743.40
2024-04-22T01:24:29.400Z,740.92
2024-04-22T01:25:29.487Z,739.28
2024-04-22T01:26:29.438Z,739.28
2024-04-22T01:27:29.404Z,740.92
2024-04-22T01:28:29.456Z,736.83
2024-04-22T01:29:29.249Z,736.02
2024-04-22T01:30:29.260Z,736.83
2024-04-22T01:31:29.304Z,735.21
2024-04-22T01:32:29.242Z,731.18
2024-04-22T01:33:29.245Z,731.18
2024-04-22T01:34:29.260Z,731.98
2024-04-22T01:35:29.197Z,730.38
2024-04-22T01:36:29.198Z,728.78
2024-04-22T01:37:29.211Z,729.58
2024-04-22T01:38:29.146Z,725.61
2024-04-22T01:39:29.125Z,730.38
2024-04-22T01:40:29.167Z,724.82
2024-04-22T01:41:29.133Z,728.78
2024-04-22T01:42:29.098Z,727.98
2024-04-22T01:43:29.107Z,720.12
2024-04-22T01:44:29.082Z,718.57
2024-04-22T01:45:29.073Z,720.12
2024-04-22T01:46:29.137Z,722.46
2024-04-22T01:47:29.077Z,725.61
2024-04-22T01:48:29.046Z,725.61
2024-04-22T01:49:29.067Z,724.03
2024-04-22T01:50:29.032Z,727.19
2024-04-22T01:51:29.033Z,718.57
2024-04-22T01:52:29.015Z,724.03
2024-04-22T01:53:28.982Z,722.46
2024-04-22T01:54:28.964Z,722.46
2024-04-22T01:55:28.989Z,720.12
2024-04-22T01:56:28.955Z,727.19
2024-04-22T01:57:28.947Z,724.82
2024-04-22T01:58:28.982Z,719.34
2024-04-22T01:59:28.937Z,722.46
2024-04-22T02:00:28.907Z,727.98
2024-04-22T02:01:28.920Z,722.46
2024-04-22T02:02:28.885Z,722.46
2024-04-22T02:03:28.886Z,727.98
2024-04-22T02:04:28.944Z,723.25
2024-04-22T02:05:28.846Z,724.03
2024-04-22T02:06:28.862Z,721.68
2024-04-22T02:07:28.942Z,719.34
2024-04-22T02:08:28.808Z,722.46
2024-04-22T02:09:28.807Z,725.61
2024-04-22T02:10:28.910Z,724.03
2024-04-22T02:11:28.848Z,720.12
2024-04-22T02:12:28.794Z,724.03
2024-04-22T02:13:28.796Z,725.61
2024-04-22T02:14:28.782Z,724.82
2024-04-22T02:15:28.774Z,720.90
2024-04-22T02:16:28.753Z,727.98
2024-04-22T02:17:28.800Z,728.78
2024-04-22T02:18:28.713Z,728.78
2024-04-22T02:19:28.756Z,730.38
2024-04-22T02:20:28.689Z,720.90
2024-04-22T02:21:28.672Z,723.25
2024-04-22T02:22:28.764Z,726.40
2024-04-22T02:23:28.659Z,724.82
2024-04-22T02:24:28.648Z,724.03
2024-04-22T02:25:28.640Z,727.98
2024-04-22T02:26:28.658Z,728.78
2024-04-22T02:27:28.618Z,730.38
2024-04-22T02:28:28.658Z,731.18
2024-04-22T02:29:28.586Z,731.18
2024-04-22T02:30:28.630Z,731.98
2024-04-22T02:31:28.597Z,732.78
2024-04-22T02:32:28.794Z,735.21
2024-04-22T02:33:28.744Z,735.21
2024-04-22T02:34:28.545Z,736.02
2024-04-22T02:35:28.536Z,738.46
2024-04-22T02:36:28.573Z,732.78
2024-04-22T02:37:28.577Z,738.46
2024-04-22T02:38:28.511Z,738.46
2024-04-22T02:39:28.509Z,741.75
2024-04-22T02:40:28.485Z,740.10
2024-04-22T02:41:28.451Z,734.40
2024-04-22T02:42:28.469Z,742.58
2024-04-22T02:43:28.471Z,741.75
2024-04-22T02:44:28.442Z,737.65
2024-04-22T02:45:28.444Z,745.90
2024-04-22T02:46:28.456Z,745.06
2024-04-22T02:47:28.425Z,745.06
2024-04-22T02:48:28.394Z,746.23
2024-04-22T02:49:28.433Z,745.06
2024-04-22T02:50:28.423Z,742.58
2024-04-22T02:51:28.359Z,748.74
2024-04-22T02:52:28.367Z,741.75
2024-04-22T02:53:28.327Z,746.73
2024-04-22T02:54:28.337Z,747.90
2024-04-22T02:55:28.358Z,750.00
2024-04-22T02:56:28.313Z,751.27
2024-04-22T02:57:28.282Z,750.00
2024-04-22T02:58:28.390Z,746.23
2024-04-22T02:59:28.288Z,749.16
2024-04-22T03:00:28.272Z,755.09
2024-04-22T03:01:28.316Z,757.23
2024-04-22T03:02:28.234Z,755.52
2024-04-22T03:03:28.297Z,756.37
2024-04-22T03:04:28.269Z,758.09
2024-04-22T03:05:28.209Z,756.80
2024-04-22T03:06:28.211Z,761.99
2024-04-22T03:07:28.241Z,759.82
2024-04-22T03:08:28.189Z,761.55
2024-04-22T03:09:28.151Z,762.42
2024-04-22T03:10:28.190Z,763.73
2024-04-22T03:11:28.168Z,760.25
2024-04-22T03:12:28.116Z,760.25
2024-04-22T03:13:28.169Z,761.99
2024-04-22T03:14:28.086Z,758.52
2024-04-22T03:15:28.105Z,760.68
2024-04-22T03:16:28.159Z,765.48
2024-04-22T03:17:28.157Z,760.25
2024-04-22T03:18:28.097Z,764.60
2024-04-22T03:19:28.117Z,761.55
2024-04-22T03:20:28.036Z,766.80
2024-04-22T03:21:28.046Z,766.36
2024-04-22T03:22:28.053Z,772.57
2024-04-22T03:23:28.008Z,768.12
2024-04-22T03:24:28.001Z,767.68
2024-04-22T03:25:27.979Z,765.04
2024-04-22T03:26:28.017Z,761.55
2024-04-22T03:27:27.959Z,767.24
2024-04-22T03:28:27.983Z,762.42
2024-04-22T03:29:27.940Z,767.24
2024-04-22T03:30:27.929Z,765.04
2024-04-22T03:31:28.058Z,760.68
2024-04-22T03:32:28.013Z,760.25
2024-04-22T03:33:27.896Z,761.99
2024-04-22T03:34:27.904Z,761.12
2024-04-22T03:35:27.886Z,761.12
2024-04-22T03:36:27.892Z,759.39
2024-04-22T03:37:27.888Z,759.82
2024-04-22T03:38:27.840Z,761.99
2024-04-22T03:39:27.886Z,761.12
2024-04-22T03:40:27.856Z,762.86
2024-04-22T03:41:27.818Z,765.48
2024-04-22T03:42:27.801Z,766.36
2024-04-22T03:43:27.836Z,764.17
2024-04-22T03:44:27.791Z,766.36
2024-04-22T03:45:27.767Z,769.45
2024-04-22T03:46:27.761Z,772.12
2024-04-22T03:47:27.839Z,777.97
2024-04-22T03:48:27.719Z,778.42
2024-04-22T03:49:27.724Z,774.81
2024-04-22T03:50:27.758Z,785.76
2024-04-22T03:51:27.689Z,782.07
2024-04-22T03:52:27.770Z,786.68
2024-04-22T03:53:27.670Z,784.37
2024-04-22T03:54:27.659Z,785.76
2024-04-22T03:55:27.720Z,794.64
2024-04-22T03:56:27.709Z,794.17
2024-04-22T03:57:27.636Z,796.06
2024-04-22T03:58:27.675Z,799.88
2024-04-22T03:59:27.627Z,799.40
2024-04-22T04:00:27.602Z,805.67
2024-04-22T04:01:27.600Z,804.22
2024-04-22T04:02:27.581Z,809.58
2024-04-22T04:03:27.638Z,806.65
2024-04-22T04:04:27.685Z,813.53
2024-04-22T04:05:27.703Z,812.54
2024-04-22T04:06:27.563Z,810.07
2024-04-22T04:07:27.644Z,808.11
2024-04-22T04:08:27.555Z,810.56
2024-04-22T04:09:27.522Z,819.02
2024-04-22T04:10:27.556Z,817.51
2024-04-22T04:11:27.595Z,820.02
2024-04-22T04:12:27.465Z,822.55
2024-04-22T04:13:27.496Z,821.54
2024-04-22T04:14:27.461Z,830.74
2024-04-22T04:15:27.441Z,828.68
2024-04-22T04:16:27.505Z,824.58
2024-04-22T04:17:27.507Z,826.11
2024-04-22T04:18:27.429Z,827.14
2024-04-22T04:19:27.486Z,825.60
2024-04-22T04:20:27.371Z,822.04
2024-04-22T04:21:27.362Z,830.22
2024-04-22T04:22:27.390Z,831.26
2024-04-22T04:23:27.396Z,832.81
2024-04-22T04:24:27.348Z,831.26
2024-04-22T04:25:27.350Z,839.62
2024-04-22T04:26:27.346Z,838.57
2024-04-22T04:27:27.365Z,841.21
2024-04-22T04:28:27.299Z,840.15
2024-04-22T04:29:27.294Z,844.40
2024-04-22T04:30:27.277Z,841.21
2024-04-22T04:31:27.313Z,849.78
2024-04-22T04:32:27.358Z,846.01
2024-04-22T04:33:27.263Z,847.08
2024-04-22T04:34:27.279Z,846.54
2024-04-22T04:35:27.218Z,848.70
2024-04-22T04:36:27.235Z,858.52
2024-04-22T04:37:27.330Z,849.78
2024-04-22T04:38:27.229Z,847.08
2024-04-22T04:39:27.233Z,849.24
2024-04-22T04:40:27.173Z,850.86
2024-04-22T04:41:27.149Z,851.40
2024-04-22T04:42:27.178Z,850.86
2024-04-22T04:43:27.194Z,852.49
2024-04-22T04:44:27.149Z,861.29
2024-04-22T04:45:27.109Z,851.40
2024-04-22T04:46:27.117Z,857.42
2024-04-22T04:47:27.134Z,853.03
2024-04-22T04:48:27.246Z,856.32
2024-04-22T04:49:27.089Z,857.42
2024-04-22T04:50:27.073Z,855.77
2024-04-22T04:51:27.059Z,852.49
2024-04-22T04:52:27.089Z,855.77
2024-04-22T04:53:27.022Z,859.07
2024-04-22T04:54:27.041Z,858.52
2024-04-22T04:55:27.039Z,851.95
2024-04-22T04:56:27.424Z,858.52
2024-04-22T04:57:26.985Z,860.18
2024-04-22T04:58:26.982Z,859.63
2024-04-22T04:59:27.007Z,859.63
2024-04-22T05:00:27.005Z,857.42
2024-04-22T05:01:27.152Z,858.52
2024-04-22T05:02:26.989Z,861.85
2024-04-22T05:03:27.012Z,861.85
2024-04-22T05:04:26.927Z,858.52
2024-04-22T05:05:26.945Z,859.63
2024-04-22T05:06:26.928Z,870.84
2024-04-22T05:07:26.969Z,864.64
2024-04-22T05:08:26.863Z,863.52
2024-04-22T05:09:26.859Z,861.29
2024-04-22T05:10:26.878Z,861.29
2024-04-22T05:11:26.890Z,868.58
2024-04-22T05:12:26.824Z,868.58
2024-04-22T05:13:26.839Z,866.32
2024-04-22T05:14:26.810Z,868.58
2024-04-22T05:15:26.820Z,864.08
2024-04-22T05:16:26.843Z,866.32
2024-04-22T05:17:26.824Z,866.88
2024-04-22T05:18:26.809Z,866.88
2024-04-22T05:19:26.772Z,865.76
2024-04-22T05:20:26.762Z,868.01
2024-04-22T05:21:26.736Z,868.01
2024-04-22T05:22:26.795Z,870.84
2024-04-22T05:23:26.688Z,868.01
2024-04-22T05:24:29.409Z,872.55
2024-04-22T05:25:26.713Z,869.71
2024-04-22T05:26:26.662Z,871.98
2024-04-22T05:27:26.665Z,878.87
2024-04-22T05:28:26.677Z,866.88
2024-04-22T05:29:26.651Z,873.69
2024-04-22T05:30:26.635Z,873.12
2024-04-22T05:31:26.641Z,874.26
2024-04-22T05:32:26.664Z,871.41
2024-04-22T05:33:30.257Z,870.27
2024-04-22T05:34:26.645Z,877.14
2024-04-22T05:35:26.589Z,871.41
2024-04-22T05:36:26.583Z,868.58
2024-04-22T05:37:26.568Z,873.69
2024-04-22T05:38:26.547Z,866.32
2024-04-22T05:39:26.533Z,871.98
2024-04-22T05:40:26.559Z,868.01
2024-04-22T05:41:26.515Z,878.87
2024-04-22T05:42:26.507Z,873.69
2024-04-22T05:43:26.486Z,873.12
2024-04-22T05:44:26.476Z,869.71
2024-04-22T05:45:26.485Z,871.98
2024-04-22T05:46:26.456Z,873.12
2024-04-22T05:47:26.539Z,871.98
2024-04-22T05:48:26.536Z,875.41
2024-04-22T05:49:26.471Z,878.87
2024-04-22T05:50:26.409Z,873.69
2024-04-22T05:51:26.412Z,875.98
2024-04-22T05:52:26.405Z,878.87
2024-04-22T05:53:26.389Z,880.61
2024-04-22T05:54:26.367Z,882.35
2024-04-22T05:55:26.372Z,877.14
2024-04-22T05:56:26.325Z,887.63
2024-04-22T05:57:26.370Z,883.52
2024-04-22T05:58:26.387Z,885.86
2024-04-22T05:59:26.316Z,884.69
2024-04-22T06:00:26.313Z,888.22
2024-04-22T06:01:26.278Z,886.45
2024-04-22T06:02:26.311Z,894.17
2024-04-22T06:03:26.296Z,895.37
2024-04-22T06:04:26.314Z,888.22
2024-04-22T06:05:26.264Z,895.37
2024-04-22T06:06:26.224Z,891.78
2024-04-22T06:07:26.268Z,900.20
2024-04-22T06:08:26.216Z,898.38
2024-04-22T06:09:26.224Z,908.16
2024-04-22T06:10:26.240Z,903.25
2024-04-22T06:11:26.217Z,901.42
2024-04-22T06:12:26.196Z,900.20
2024-04-22T06:13:26.182Z,897.78
2024-04-22T06:14:26.161Z,902.64
2024-04-22T06:15:26.159Z,911.26
2024-04-22T06:16:26.158Z,907.54
2024-04-22T06:17:26.130Z,912.51
2024-04-22T06:18:26.119Z,918.16
2024-04-22T06:19:26.110Z,916.27
2024-04-22T06:20:26.093Z,922.60
2024-04-22T06:21:26.083Z,913.76
2024-04-22T06:22:26.062Z,915.64
2024-04-22T06:23:26.082Z,916.90
2024-04-22T06:24:26.046Z,915.64
2024-04-22T06:25:26.066Z,912.51
2024-04-22T06:26:26.016Z,923.24
2024-04-22T06:27:25.989Z,918.16
2024-04-22T06:28:26.003Z,923.24
2024-04-22T06:29:25.977Z,915.01
2024-04-22T06:30:25.979Z,918.16
2024-04-22T06:31:26.036Z,920.05
2024-04-22T06:32:26.099Z,923.24
2024-04-22T06:33:26.019Z,927.73
2024-04-22T06:34:25.956Z,924.52
2024-04-22T06:35:25.937Z,926.44
2024-04-22T06:36:25.934Z,922.60
2024-04-22T06:37:25.954Z,924.52
2024-04-22T06:38:25.881Z,929.66
2024-04-22T06:39:25.864Z,929.02
2024-04-22T06:40:25.916Z,930.31
2024-04-22T06:41:25.874Z,927.73
2024-04-22T06:42:25.840Z,934.87
2024-04-22T06:43:25.829Z,930.31
2024-04-22T06:44:25.826Z,928.37
2024-04-22T06:45:25.828Z,928.37
2024-04-22T06:46:33.560Z,928.37
2024-04-22T06:47:25.851Z,932.26
2024-04-22T06:48:25.793Z,935.53
2024-04-22T06:49:29.704Z,932.91
2024-04-22T06:50:25.782Z,930.31
2024-04-22T06:51:25.729Z,930.31
2024-04-22T06:52:25.730Z,929.66
2024-04-22T06:53:25.713Z,932.91
2024-04-22T06:54:25.728Z,929.66
2024-04-22T06:55:26.167Z,926.44
2024-04-22T06:56:25.698Z,926.44
2024-04-22T06:57:25.669Z,930.31
2024-04-22T06:58:25.684Z,937.50
2024-04-22T06:59:25.945Z,929.02
2024-04-22T07:00:25.646Z,930.31
2024-04-22T07:01:34.796Z,940.80
2024-04-22T07:02:30.017Z,941.47
2024-04-22T07:03:25.776Z,937.50
2024-04-22T07:04:25.671Z,938.82
2024-04-22T07:05:25.638Z,935.53
2024-04-22T07:06:25.587Z,936.18
2024-04-22T07:07:25.655Z,940.80
2024-04-22T07:08:25.562Z,938.16
2024-04-22T07:09:25.547Z,939.48
2024-04-22T07:10:25.560Z,940.80
2024-04-22T07:11:25.607Z,934.87
2024-04-22T07:12:25.531Z,938.16
2024-04-22T07:13:25.515Z,944.80
2024-04-22T07:14:25.538Z,942.80
2024-04-22T07:15:25.511Z,940.80
2024-04-22T07:16:25.558Z,939.48
2024-04-22T07:17:25.517Z,938.16
2024-04-22T07:18:25.491Z,947.48
2024-04-22T07:19:25.478Z,943.46
2024-04-22T07:20:25.448Z,947.48
2024-04-22T07:21:25.447Z,942.13
2024-04-22T07:22:25.432Z,948.15
2024-04-22T07:23:25.410Z,952.89
2024-04-22T07:24:28.267Z,951.53
2024-04-22T07:25:25.414Z,953.57
2024-04-22T07:26:25.388Z,950.18
2024-04-22T07:27:27.589Z,948.15
2024-04-22T07:28:25.366Z,956.99
2024-04-22T07:29:25.481Z,955.62
2024-04-22T07:30:25.345Z,950.18
2024-04-22T07:31:25.384Z,946.81
2024-04-22T07:32:25.355Z,951.53
2024-04-22T07:33:27.213Z,959.74
2024-04-22T07:34:25.303Z,952.21
2024-04-22T07:35:25.274Z,953.57
2024-04-22T07:36:25.277Z,951.53
2024-04-22T07:37:25.264Z,956.99
2024-04-22T07:38:25.232Z,952.21
2024-04-22T07:39:25.218Z,957.67
2024-04-22T07:40:25.309Z,952.89
2024-04-22T07:41:25.208Z,954.25
2024-04-22T07:42:25.187Z,952.21
2024-04-22T07:43:25.211Z,950.85
2024-04-22T07:44:25.196Z,952.21
2024-04-22T07:45:27.868Z,951.53
2024-04-22T07:46:25.206Z,956.99
2024-04-22T07:47:25.201Z,952.21
2024-04-22T07:48:25.143Z,955.62
2024-04-22T07:49:25.152Z,959.05
2024-04-22T07:50:25.092Z,958.36
2024-04-22T07:51:25.140Z,955.62
2024-04-22T07:52:25.167Z,956.30
2024-04-22T07:53:25.104Z,958.36
2024-04-22T07:54:25.069Z,957.67
2024-04-22T07:55:25.117Z,961.82
2024-04-22T07:56:25.061Z,956.30
2024-04-22T07:57:25.082Z,956.30
2024-04-22T07:58:25.019Z,955.62
2024-04-22T07:59:25.010Z,955.62
2024-04-22T08:00:24.984Z,958.36
2024-04-22T08:01:25.096Z,962.51
2024-04-22T08:02:25.018Z,959.74
2024-04-22T08:03:25.055Z,960.43
2024-04-22T08:04:25.008Z,968.79
2024-04-22T08:05:25.018Z,970.20
2024-04-22T08:06:24.968Z,972.32
2024-04-22T08:07:24.938Z,973.03
2024-04-22T08:08:24.908Z,973.74
2024-04-22T08:09:25.665Z,972.32
2024-04-22T08:10:24.962Z,970.91
2024-04-22T08:11:24.923Z,974.45
2024-04-22T08:12:24.858Z,977.31
2024-04-22T08:13:24.864Z,978.74
2024-04-22T08:14:24.832Z,982.34
2024-04-22T08:15:24.837Z,983.79
2024-04-22T08:16:24.916Z,980.90
2024-04-22T08:17:24.982Z,987.43
2024-04-22T08:18:24.832Z,983.79
2024-04-22T08:19:24.885Z,978.02
2024-04-22T08:20:24.822Z,982.34
2024-04-22T08:21:24.802Z,982.34
2024-04-22T08:22:24.807Z,988.16
2024-04-22T08:23:24.753Z,983.79
2024-04-22T08:24:24.728Z,978.74
2024-04-22T08:25:24.765Z,985.97
2024-04-22T08:26:24.730Z,982.34
2024-04-22T08:27:24.750Z,986.70
2024-04-22T08:28:24.717Z,985.24
2024-04-22T08:29:24.688Z,990.36
2024-04-22T08:30:24.659Z,986.70
2024-04-22T08:31:24.742Z,988.16
2024-04-22T08:32:24.639Z,986.70
2024-04-22T08:33:24.707Z,990.36
2024-04-22T08:34:24.622Z,987.43
2024-04-22T08:35:24.608Z,992.57
2024-04-22T08:36:24.669Z,991.09
2024-04-22T08:37:24.630Z,987.43
2024-04-22T08:38:24.574Z,996.27
2024-04-22T08:39:24.561Z,1000.75
2024-04-22T08:40:26.691Z,989.62
2024-04-22T08:41:24.538Z,1001.50
2024-04-22T08:42:24.552Z,1000.00
2024-04-22T08:43:24.837Z,985.24
2024-04-22T08:44:24.520Z,1001.50
2024-04-22T08:45:24.495Z,994.04
2024-04-22T08:46:24.585Z,1003.01
2024-04-22T08:47:24.574Z,988.16
2024-04-22T08:48:24.500Z,1007.55
2024-04-22T08:49:24.504Z,1000.00
2024-04-22T08:50:24.461Z,1001.50
2024-04-22T08:51:24.580Z,1004.51
2024-04-22T08:52:24.478Z,998.50
2024-04-22T08:53:24.460Z,1000.75
2024-04-22T08:54:25.284Z,1001.50
2024-04-22T08:55:24.458Z,1009.07
2024-04-22T08:56:24.377Z,1004.51
2024-04-22T08:57:24.383Z,1011.36
2024-04-22T08:58:24.445Z,1010.60
2024-04-22T08:59:33.548Z,1004.51
2024-04-22T09:00:25.330Z,1003.01
2024-04-22T09:01:24.455Z,1000.75
2024-04-22T09:02:24.361Z,994.78
2024-04-22T09:03:24.367Z,1012.13
2024-04-22T09:04:24.445Z,1022.99
2024-04-22T09:05:24.515Z,1019.08
2024-04-22T09:06:24.367Z,1009.07
2024-04-22T09:07:24.398Z,1010.60
2024-04-22T09:08:24.287Z,1007.55
2024-04-22T09:09:35.910Z,1013.67
2024-04-22T09:10:55.673Z,998.50
2024-04-22T09:11:49.765Z,1001.50
2024-04-22T09:12:25.564Z,1004.51
2024-04-22T09:13:24.475Z,1007.55
2024-04-22T09:14:24.419Z,1008.31
2024-04-22T09:15:24.471Z,1013.67
2024-04-22T09:16:24.246Z,1003.01
2024-04-22T09:17:24.256Z,1016.76
2024-04-22T09:18:25.735Z,998.50
2024-04-22T09:19:24.284Z,1015.21
2024-04-22T09:20:24.267Z,1002.25
2024-04-22T09:21:24.101Z,1002.25
2024-04-22T09:22:24.113Z,1007.55
2024-04-22T09:23:24.084Z,1012.13
2024-04-22T09:24:24.163Z,1012.90
2024-04-22T09:25:24.234Z,1009.07
2024-04-22T09:26:24.049Z,1007.55
2024-04-22T09:27:24.136Z,1017.53
2024-04-22T09:28:24.304Z,1007.55
2024-04-22T09:29:24.091Z,1012.90
2024-04-22T09:30:24.038Z,1021.42
2024-04-22T09:31:24.094Z,1019.08
2024-04-22T09:32:24.246Z,1019.86
2024-04-22T09:33:24.979Z,1014.44
2024-04-22T09:34:24.023Z,1017.53
2024-04-22T09:35:24.098Z,1019.08
2024-04-22T09:36:23.998Z,1019.86
2024-04-22T09:37:24.022Z,1021.42
2024-04-22T09:38:34.879Z,1043.78
2024-04-22T09:39:24.989Z,1030.89
2024-04-22T09:40:23.937Z,1035.69
2024-04-22T09:41:23.928Z,1028.51
2024-04-22T09:42:23.862Z,1035.69
2024-04-22T09:43:23.866Z,1038.10
2024-04-22T09:44:23.991Z,1034.88
2024-04-22T09:45:23.901Z,1036.49
2024-04-22T09:46:23.902Z,1040.53
2024-04-22T09:47:24.135Z,1037.30
2024-04-22T09:48:24.023Z,1058.68
2024-04-22T09:49:25.607Z,1042.97
2024-04-22T09:50:23.942Z,1047.06
2024-04-22T09:51:23.797Z,1042.15
2024-04-22T09:52:23.813Z,1044.60
2024-04-22T09:53:23.890Z,1047.88
2024-04-22T09:54:23.787Z,1048.70
2024-04-22T09:55:23.993Z,1047.06
2024-04-22T09:56:23.772Z,1057.01
2024-04-22T09:57:23.738Z,1044.60
2024-04-22T09:58:23.860Z,1052.84
2024-04-22T09:59:23.772Z,1055.33
2024-04-22T10:00:23.673Z,1051.18
2024-04-22T10:01:23.778Z,1061.21
2024-04-22T10:02:23.735Z,1057.01
2024-04-22T10:03:23.728Z,1057.01
2024-04-22T10:04:23.977Z,1054.50
2024-04-22T10:05:23.997Z,1058.68
2024-04-22T10:06:23.980Z,1065.44
2024-04-22T10:07:23.655Z,1064.59
2024-04-22T10:08:23.651Z,1057.01
2024-04-22T10:09:23.592Z,1084.48
2024-04-22T10:10:23.728Z,1076.61
2024-04-22T10:11:23.838Z,1062.05
2024-04-22T10:12:23.689Z,1065.44
2024-04-22T10:13:23.648Z,1069.71
2024-04-22T10:14:23.536Z,1065.44
2024-04-22T10:15:23.519Z,1069.71
2024-04-22T10:16:23.680Z,1066.29
2024-04-22T10:17:23.551Z,1072.29
2024-04-22T10:18:23.859Z,1074.01
2024-04-22T10:19:23.714Z,1088.02
2024-04-22T10:20:23.569Z,1083.60
2024-04-22T10:21:23.460Z,1072.29
2024-04-22T10:22:23.482Z,1072.29
2024-04-22T10:23:23.435Z,1073.15
2024-04-22T10:24:23.488Z,1083.60
2024-04-22T10:25:23.412Z,1074.01
2024-04-22T10:26:23.431Z,1074.01
2024-04-22T10:27:23.368Z,1077.48
2024-04-22T10:28:23.438Z,1080.10
2024-04-22T10:29:23.415Z,1084.48
2024-04-22T10:30:23.353Z,1080.97
2024-04-22T10:31:23.835Z,1078.35
2024-04-22T10:32:23.355Z,1088.02
2024-04-22T10:33:23.417Z,1082.72
2024-04-22T10:34:23.370Z,1083.60
2024-04-22T10:35:23.318Z,1088.91
2024-04-22T10:36:23.317Z,1089.80
2024-04-22T10:37:23.319Z,1086.25
2024-04-22T10:38:23.259Z,1096.06
2024-04-22T10:39:23.242Z,1111.57
2024-04-22T10:40:23.287Z,1092.47
2024-04-22T10:41:23.289Z,1095.16
2024-04-22T10:42:23.237Z,1094.26
2024-04-22T10:43:23.241Z,1091.58
2024-04-22T10:44:23.229Z,1100.58
2024-04-22T10:45:23.180Z,1090.69
2024-04-22T10:46:23.194Z,1115.29
2024-04-22T10:47:23.211Z,1117.15
2024-04-22T10:48:23.235Z,1097.86
2024-04-22T10:49:23.347Z,1114.36
2024-04-22T10:50:23.220Z,1095.16
2024-04-22T10:51:23.165Z,1106.05
2024-04-22T10:52:23.230Z,1102.39
2024-04-22T10:53:23.129Z,1123.74
2024-04-22T10:54:23.107Z,1123.74
2024-04-22T10:55:23.146Z,1124.68
2024-04-22T10:56:23.215Z,1113.43
2024-04-22T10:57:23.117Z,1115.29
2024-04-22T10:58:23.131Z,1110.65
2024-04-22T10:59:23.087Z,1109.72
2024-04-22T11:00:23.288Z,1114.36
2024-04-22T11:01:23.102Z,1117.15
2024-04-22T11:02:23.631Z,1129.44
2024-04-22T11:03:23.039Z,1136.17
2024-04-22T11:04:23.043Z,1121.85
2024-04-22T11:05:23.595Z,1120.91
2024-04-22T11:06:23.019Z,1127.53
2024-04-22T11:07:22.988Z,1123.74
2024-04-22T11:08:22.994Z,1127.53
2024-04-22T11:09:22.919Z,1123.74
2024-04-22T11:10:31.039Z,1149.87
2024-04-22T11:11:24.056Z,1138.11
2024-04-22T11:12:26.455Z,1128.49
2024-04-22T11:13:23.917Z,1128.49
2024-04-22T11:14:22.880Z,1126.58
2024-04-22T11:15:22.870Z,1130.40
2024-04-22T11:16:23.131Z,1152.85
2024-04-22T11:17:22.830Z,1136.17
2024-04-22T11:18:22.847Z,1153.85
2024-04-22T11:19:22.833Z,1154.84
2024-04-22T11:20:22.811Z,1148.88
2024-04-22T11:21:22.794Z,1151.85
2024-04-22T11:22:22.842Z,1155.84
2024-04-22T11:23:22.777Z,1133.28
2024-04-22T11:24:22.794Z,1144.94
2024-04-22T11:25:22.881Z,1137.14
2024-04-22T11:26:22.746Z,1135.20
2024-04-22T11:27:22.742Z,1138.11
2024-04-22T11:28:22.850Z,1151.85
2024-04-22T11:29:22.739Z,1143.96
2024-04-22T11:30:22.729Z,1143.96
2024-04-22T11:31:22.733Z,1162.89
2024-04-22T11:32:22.715Z,1139.08
2024-04-22T11:33:22.776Z,1144.94
2024-04-22T11:34:22.686Z,1142.98
2024-04-22T11:35:22.679Z,1166.96
2024-04-22T11:36:22.629Z,1159.86
2024-04-22T11:37:22.657Z,1143.96
2024-04-22T11:38:22.607Z,1146.91
2024-04-22T11:39:22.707Z,1174.14
2024-04-22T11:40:22.637Z,1163.91
2024-04-22T11:41:22.600Z,1172.08
2024-04-22T11:42:22.593Z,1147.89
2024-04-22T11:43:22.557Z,1157.85
2024-04-22T11:44:22.577Z,1152.85
2024-04-22T11:45:22.571Z,1171.05
2024-04-22T11:46:22.599Z,1177.25
2024-04-22T11:47:22.579Z,1170.03
2024-04-22T11:48:22.537Z,1150.86
2024-04-22T11:49:22.557Z,1174.14
2024-04-22T11:50:22.469Z,1169.00
2024-04-22T11:51:22.475Z,1170.03
2024-04-22T11:52:22.491Z,1153.85
2024-04-22T11:53:25.573Z,1151.85
2024-04-22T11:54:22.482Z,1160.87
2024-04-22T11:55:22.438Z,1161.88
2024-04-22T11:56:22.435Z,1174.14
2024-04-22T11:57:22.455Z,1174.14
2024-04-22T11:58:22.482Z,1175.18
2024-04-22T11:59:22.427Z,1158.85
2024-04-22T12:00:22.428Z,1179.33
2024-04-22T12:01:22.435Z,1162.89
2024-04-22T12:02:22.362Z,1151.85
2024-04-22T12:03:22.389Z,1170.03
2024-04-22T12:04:22.490Z,1154.84
2024-04-22T12:05:22.407Z,1178.29
2024-04-22T12:06:22.337Z,1167.98
2024-04-22T12:07:22.371Z,1171.05
2024-04-22T12:08:22.314Z,1166.96
2024-04-22T12:09:22.304Z,1173.11
2024-04-22T12:10:22.327Z,1159.86
2024-04-22T12:11:22.308Z,1171.05
2024-04-22T12:12:22.257Z,1162.89
2024-04-22T12:13:22.274Z,1169.00
2024-04-22T12:14:22.260Z,1164.92
2024-04-22T12:15:22.227Z,1162.89
2024-04-22T12:16:22.285Z,1170.03
2024-04-22T12:17:22.230Z,1165.94
2024-04-22T12:18:22.190Z,1163.91
2024-04-22T12:19:22.200Z,1180.37
2024-04-22T12:20:22.212Z,1160.87
2024-04-22T12:21:22.163Z,1161.88